sensor_id;sensor_type;location;lat;lon;timestamp;temperature;humidity
3542;DHT22;1785;47.388;8.538;2023-06-22T00:01:16;24.20;99.90
3542;DHT22;1785;47.388;8.538;2023-06-22T00:03:42;23.80;99.90
3542;DHT22;1785;47.388;8.538;2023-06-22T00:06:08;23.60;99.90
3542;DHT22;1785;47.388;8.538;2023-06-22T00:08:34;23.30;99.90
3542;DHT22;1785;47.388;8.538;2023-06-22T00:11:01;23.20;99.90
3542;DHT22;1785;47.388;8.538;2023-06-22T00:13:27;23.40;99.90
3542;DHT22;1785;47.388;8.538;2023-06-22T00:15:53;23.40;99.90
3542;DHT22;1785;47.388;8.538;2023-06-22T00:18:19;23.30;99.90
3542;DHT22;1785;47.388;8.538;2023-06-22T00:20:45;23.30;99.90
3542;DHT22;1785;47.388;8.538;2023-06-22T00:23:12;23.30;99.90
3542;DHT22;1785;47.388;8.538;2023-06-22T00:25:41;23.40;99.90
3542;DHT22;1785;47.388;8.538;2023-06-22T00:28:08;23.70;99.90
3542;DHT22;1785;47.388;8.538;2023-06-22T00:30:35;23.70;99.90
3542;DHT22;1785;47.388;8.538;2023-06-22T00:33:01;23.70;99.90
3542;DHT22;1785;47.388;8.538;2023-06-22T00:35:28;23.80;99.90
3542;DHT22;1785;47.388;8.538;2023-06-22T00:37:55;24.10;99.90
3542;DHT22;1785;47.388;8.538;2023-06-22T00:40:41;24.40;99.90
3542;DHT22;1785;47.388;8.538;2023-06-22T00:43:17;24.60;99.90
3542;DHT22;1785;47.388;8.538;2023-06-22T00:45:43;24.70;99.90
3542;DHT22;1785;47.388;8.538;2023-06-22T00:48:33;24.70;99.90
3542;DHT22;1785;47.388;8.538;2023-06-22T00:51:10;24.80;99.90
3542;DHT22;1785;47.388;8.538;2023-06-22T00:53:37;24.70;99.90
3542;DHT22;1785;47.388;8.538;2023-06-22T00:56:04;24.60;99.90
3542;DHT22;1785;47.388;8.538;2023-06-22T00:58:35;24.60;99.90
3542;DHT22;1785;47.388;8.538;2023-06-22T01:01:01;24.50;99.90
3542;DHT22;1785;47.388;8.538;2023-06-22T01:03:28;24.40;99.90
3542;DHT22;1785;47.388;8.538;2023-06-22T01:05:59;24.40;99.90
3542;DHT22;1785;47.388;8.538;2023-06-22T01:08:33;24.20;99.90
3542;DHT22;1785;47.388;8.538;2023-06-22T01:11:05;24.20;99.90
3542;DHT22;1785;47.388;8.538;2023-06-22T01:13:37;24.40;99.90
3542;DHT22;1785;47.388;8.538;2023-06-22T01:16:09;24.30;99.90
3542;DHT22;1785;47.388;8.538;2023-06-22T01:18:39;24.20;99.90
3542;DHT22;1785;47.388;8.538;2023-06-22T01:21:06;24.40;99.90
3542;DHT22;1785;47.388;8.538;2023-06-22T01:23:48;24.40;99.90
3542;DHT22;1785;47.388;8.538;2023-06-22T01:26:20;24.10;99.90
3542;DHT22;1785;47.388;8.538;2023-06-22T01:28:50;23.90;99.90
3542;DHT22;1785;47.388;8.538;2023-06-22T01:31:23;24.10;99.90
3542;DHT22;1785;47.388;8.538;2023-06-22T01:33:53;24.20;99.90
3542;DHT22;1785;47.388;8.538;2023-06-22T01:36:21;24.10;99.90
3542;DHT22;1785;47.388;8.538;2023-06-22T01:38:48;23.90;99.90
3542;DHT22;1785;47.388;8.538;2023-06-22T01:41:16;24.00;99.90
3542;DHT22;1785;47.388;8.538;2023-06-22T01:43:43;24.10;99.90
3542;DHT22;1785;47.388;8.538;2023-06-22T01:46:12;24.20;99.90
3542;DHT22;1785;47.388;8.538;2023-06-22T01:48:39;24.30;99.90
3542;DHT22;1785;47.388;8.538;2023-06-22T01:51:06;24.50;99.90
3542;DHT22;1785;47.388;8.538;2023-06-22T01:53:32;24.60;99.90
3542;DHT22;1785;47.388;8.538;2023-06-22T01:55:58;24.70;99.90
3542;DHT22;1785;47.388;8.538;2023-06-22T01:58:34;24.80;99.90
3542;DHT22;1785;47.388;8.538;2023-06-22T02:01:19;24.80;99.90
3542;DHT22;1785;47.388;8.538;2023-06-22T02:04:04;24.70;99.90
3542;DHT22;1785;47.388;8.538;2023-06-22T02:06:37;24.70;99.90
3542;DHT22;1785;47.388;8.538;2023-06-22T02:09:08;24.60;99.90
3542;DHT22;1785;47.388;8.538;2023-06-22T02:11:36;24.70;99.90
3542;DHT22;1785;47.388;8.538;2023-06-22T02:14:03;24.70;99.90
3542;DHT22;1785;47.388;8.538;2023-06-22T02:16:31;24.80;99.90
3542;DHT22;1785;47.388;8.538;2023-06-22T02:19:01;24.70;99.90
3542;DHT22;1785;47.388;8.538;2023-06-22T02:21:29;24.70;99.90
3542;DHT22;1785;47.388;8.538;2023-06-22T02:23:55;24.80;99.90
3542;DHT22;1785;47.388;8.538;2023-06-22T02:26:21;24.40;99.90
3542;DHT22;1785;47.388;8.538;2023-06-22T02:28:48;24.40;99.90
3542;DHT22;1785;47.388;8.538;2023-06-22T02:31:14;24.40;99.90
3542;DHT22;1785;47.388;8.538;2023-06-22T02:33:42;24.40;99.90
3542;DHT22;1785;47.388;8.538;2023-06-22T02:36:11;24.20;99.90
3542;DHT22;1785;47.388;8.538;2023-06-22T02:38:38;24.20;99.90
3542;DHT22;1785;47.388;8.538;2023-06-22T02:41:04;24.10;99.90
3542;DHT22;1785;47.388;8.538;2023-06-22T02:43:32;24.10;99.90
3542;DHT22;1785;47.388;8.538;2023-06-22T02:45:58;24.20;99.90
3542;DHT22;1785;47.388;8.538;2023-06-22T02:48:24;24.10;99.90
3542;DHT22;1785;47.388;8.538;2023-06-22T02:50:51;23.80;99.90
3542;DHT22;1785;47.388;8.538;2023-06-22T02:53:18;23.60;99.90
3542;DHT22;1785;47.388;8.538;2023-06-22T02:55:44;23.80;99.90
3542;DHT22;1785;47.388;8.538;2023-06-22T02:58:10;23.80;99.90
3542;DHT22;1785;47.388;8.538;2023-06-22T03:00:37;23.90;99.90
3542;DHT22;1785;47.388;8.538;2023-06-22T03:03:04;23.90;99.90
3542;DHT22;1785;47.388;8.538;2023-06-22T03:05:30;23.70;99.90
3542;DHT22;1785;47.388;8.538;2023-06-22T03:07:59;23.50;99.90
3542;DHT22;1785;47.388;8.538;2023-06-22T03:10:25;23.60;99.90
3542;DHT22;1785;47.388;8.538;2023-06-22T03:12:51;23.50;99.90
3542;DHT22;1785;47.388;8.538;2023-06-22T03:15:17;23.40;99.90
3542;DHT22;1785;47.388;8.538;2023-06-22T03:17:43;23.40;99.90
3542;DHT22;1785;47.388;8.538;2023-06-22T03:20:10;23.50;99.90
3542;DHT22;1785;47.388;8.538;2023-06-22T03:22:37;23.80;99.90
3542;DHT22;1785;47.388;8.538;2023-06-22T03:25:05;23.70;99.90
3542;DHT22;1785;47.388;8.538;2023-06-22T03:27:36;23.50;99.90
3542;DHT22;1785;47.388;8.538;2023-06-22T03:30:02;23.60;99.90
3542;DHT22;1785;47.388;8.538;2023-06-22T03:32:28;23.80;99.90
3542;DHT22;1785;47.388;8.538;2023-06-22T03:34:54;23.70;99.90
3542;DHT22;1785;47.388;8.538;2023-06-22T03:37:24;23.40;99.90
3542;DHT22;1785;47.388;8.538;2023-06-22T03:39:50;23.20;99.90
3542;DHT22;1785;47.388;8.538;2023-06-22T03:42:17;23.40;99.90
3542;DHT22;1785;47.388;8.538;2023-06-22T03:44:44;23.70;99.90
3542;DHT22;1785;47.388;8.538;2023-06-22T03:47:10;23.80;99.90
3542;DHT22;1785;47.388;8.538;2023-06-22T03:49:36;23.40;99.90
3542;DHT22;1785;47.388;8.538;2023-06-22T03:52:03;23.30;99.90
3542;DHT22;1785;47.388;8.538;2023-06-22T03:54:30;23.20;99.90
3542;DHT22;1785;47.388;8.538;2023-06-22T03:56:58;23.10;99.90
3542;DHT22;1785;47.388;8.538;2023-06-22T03:59:25;23.10;99.90
3542;DHT22;1785;47.388;8.538;2023-06-22T04:01:51;23.40;99.90
3542;DHT22;1785;47.388;8.538;2023-06-22T04:04:17;23.30;99.90
3542;DHT22;1785;47.388;8.538;2023-06-22T04:07:04;23.20;99.90
3542;DHT22;1785;47.388;8.538;2023-06-22T04:09:30;23.30;99.90
3542;DHT22;1785;47.388;8.538;2023-06-22T04:11:56;23.10;99.90
3542;DHT22;1785;47.388;8.538;2023-06-22T04:14:22;23.00;99.90
3542;DHT22;1785;47.388;8.538;2023-06-22T04:16:49;22.90;99.90
3542;DHT22;1785;47.388;8.538;2023-06-22T04:19:16;22.90;99.90
3542;DHT22;1785;47.388;8.538;2023-06-22T04:21:43;22.70;99.90
3542;DHT22;1785;47.388;8.538;2023-06-22T04:24:10;22.60;99.90
3542;DHT22;1785;47.388;8.538;2023-06-22T04:26:36;22.50;99.90
3542;DHT22;1785;47.388;8.538;2023-06-22T04:29:03;22.60;99.90
3542;DHT22;1785;47.388;8.538;2023-06-22T04:31:31;22.90;99.90
3542;DHT22;1785;47.388;8.538;2023-06-22T04:33:59;22.90;99.90
3542;DHT22;1785;47.388;8.538;2023-06-22T04:36:33;22.90;99.90
3542;DHT22;1785;47.388;8.538;2023-06-22T04:39:05;23.00;99.90
3542;DHT22;1785;47.388;8.538;2023-06-22T04:41:31;23.40;99.90
3542;DHT22;1785;47.388;8.538;2023-06-22T04:44:12;23.30;99.90
3542;DHT22;1785;47.388;8.538;2023-06-22T04:46:39;23.40;99.90
3542;DHT22;1785;47.388;8.538;2023-06-22T04:49:06;23.20;99.90
3542;DHT22;1785;47.388;8.538;2023-06-22T04:51:39;23.30;99.90
3542;DHT22;1785;47.388;8.538;2023-06-22T04:54:05;23.50;99.90
3542;DHT22;1785;47.388;8.538;2023-06-22T04:56:32;23.70;99.90
3542;DHT22;1785;47.388;8.538;2023-06-22T04:58:58;23.80;99.90
3542;DHT22;1785;47.388;8.538;2023-06-22T05:01:24;23.90;99.90
3542;DHT22;1785;47.388;8.538;2023-06-22T05:03:51;23.80;99.90
3542;DHT22;1785;47.388;8.538;2023-06-22T05:06:25;23.70;99.90
3542;DHT22;1785;47.388;8.538;2023-06-22T05:08:52;23.80;99.90
3542;DHT22;1785;47.388;8.538;2023-06-22T05:11:23;23.60;99.90
3542;DHT22;1785;47.388;8.538;2023-06-22T05:13:49;23.70;99.90
3542;DHT22;1785;47.388;8.538;2023-06-22T05:16:16;23.80;99.90
3542;DHT22;1785;47.388;8.538;2023-06-22T05:18:42;24.10;99.90
3542;DHT22;1785;47.388;8.538;2023-06-22T05:21:09;23.90;99.90
3542;DHT22;1785;47.388;8.538;2023-06-22T05:23:36;23.60;99.90
3542;DHT22;1785;47.388;8.538;2023-06-22T05:26:03;23.70;99.90
3542;DHT22;1785;47.388;8.538;2023-06-22T05:28:29;23.50;99.90
3542;DHT22;1785;47.388;8.538;2023-06-22T05:30:55;23.30;99.90
3542;DHT22;1785;47.388;8.538;2023-06-22T05:33:32;23.30;99.90
3542;DHT22;1785;47.388;8.538;2023-06-22T05:36:24;23.50;99.90
3542;DHT22;1785;47.388;8.538;2023-06-22T05:39:11;23.60;99.90
3542;DHT22;1785;47.388;8.538;2023-06-22T05:41:39;23.80;99.90
3542;DHT22;1785;47.388;8.538;2023-06-22T05:44:05;23.90;99.90
3542;DHT22;1785;47.388;8.538;2023-06-22T05:46:31;23.80;99.90
3542;DHT22;1785;47.388;8.538;2023-06-22T05:48:57;23.60;99.90
3542;DHT22;1785;47.388;8.538;2023-06-22T05:51:23;23.30;99.90
3542;DHT22;1785;47.388;8.538;2023-06-22T05:53:49;23.00;99.90
3542;DHT22;1785;47.388;8.538;2023-06-22T05:56:17;23.30;99.90
3542;DHT22;1785;47.388;8.538;2023-06-22T05:58:43;23.30;99.90
3542;DHT22;1785;47.388;8.538;2023-06-22T06:01:09;23.20;99.90
3542;DHT22;1785;47.388;8.538;2023-06-22T06:03:36;23.40;99.90
3542;DHT22;1785;47.388;8.538;2023-06-22T06:06:06;23.60;99.90
3542;DHT22;1785;47.388;8.538;2023-06-22T06:08:32;23.50;99.90
3542;DHT22;1785;47.388;8.538;2023-06-22T06:10:58;23.30;99.90
3542;DHT22;1785;47.388;8.538;2023-06-22T06:13:28;23.60;99.90
3542;DHT22;1785;47.388;8.538;2023-06-22T06:15:54;23.80;99.90
3542;DHT22;1785;47.388;8.538;2023-06-22T06:18:21;24.10;99.90
3542;DHT22;1785;47.388;8.538;2023-06-22T06:20:47;23.90;99.90
3542;DHT22;1785;47.388;8.538;2023-06-22T06:23:13;23.80;99.90
3542;DHT22;1785;47.388;8.538;2023-06-22T06:25:39;23.80;99.90
3542;DHT22;1785;47.388;8.538;2023-06-22T06:28:05;23.80;99.90
3542;DHT22;1785;47.388;8.538;2023-06-22T06:30:32;23.80;99.90
3542;DHT22;1785;47.388;8.538;2023-06-22T06:32:59;23.50;99.90
3542;DHT22;1785;47.388;8.538;2023-06-22T06:35:25;23.50;99.90
3542;DHT22;1785;47.388;8.538;2023-06-22T06:40:54;23.80;99.90
3542;DHT22;1785;47.388;8.538;2023-06-22T06:43:20;23.70;99.90
3542;DHT22;1785;47.388;8.538;2023-06-22T06:45:47;23.50;99.90
3542;DHT22;1785;47.388;8.538;2023-06-22T06:48:13;23.60;99.90
3542;DHT22;1785;47.388;8.538;2023-06-22T06:50:40;23.70;99.90
3542;DHT22;1785;47.388;8.538;2023-06-22T06:53:06;23.80;99.90
3542;DHT22;1785;47.388;8.538;2023-06-22T06:55:32;23.80;99.90
3542;DHT22;1785;47.388;8.538;2023-06-22T06:57:59;23.90;99.90
3542;DHT22;1785;47.388;8.538;2023-06-22T07:00:25;24.20;99.90
3542;DHT22;1785;47.388;8.538;2023-06-22T07:02:53;24.20;99.90
3542;DHT22;1785;47.388;8.538;2023-06-22T07:05:19;24.20;99.90
3542;DHT22;1785;47.388;8.538;2023-06-22T07:07:45;24.30;99.90
3542;DHT22;1785;47.388;8.538;2023-06-22T07:10:11;24.20;99.90
3542;DHT22;1785;47.388;8.538;2023-06-22T07:12:37;24.40;99.90
3542;DHT22;1785;47.388;8.538;2023-06-22T07:17:38;24.60;99.90
3542;DHT22;1785;47.388;8.538;2023-06-22T07:20:08;25.00;99.90
3542;DHT22;1785;47.388;8.538;2023-06-22T07:22:37;25.20;99.90
3542;DHT22;1785;47.388;8.538;2023-06-22T07:25:04;25.00;99.90
3542;DHT22;1785;47.388;8.538;2023-06-22T07:27:35;24.60;99.90
3542;DHT22;1785;47.388;8.538;2023-06-22T07:30:04;24.40;99.90
3542;DHT22;1785;47.388;8.538;2023-06-22T07:32:30;24.40;99.90
3542;DHT22;1785;47.388;8.538;2023-06-22T07:34:56;24.50;99.90
3542;DHT22;1785;47.388;8.538;2023-06-22T07:37:23;24.50;99.90
3542;DHT22;1785;47.388;8.538;2023-06-22T07:39:49;24.30;99.90
3542;DHT22;1785;47.388;8.538;2023-06-22T07:42:19;24.30;99.90
3542;DHT22;1785;47.388;8.538;2023-06-22T07:44:45;24.40;99.90
3542;DHT22;1785;47.388;8.538;2023-06-22T07:47:11;24.40;99.90
3542;DHT22;1785;47.388;8.538;2023-06-22T07:49:37;24.40;99.90
3542;DHT22;1785;47.388;8.538;2023-06-22T07:52:04;24.60;99.90
3542;DHT22;1785;47.388;8.538;2023-06-22T07:54:31;24.40;99.90
3542;DHT22;1785;47.388;8.538;2023-06-22T07:56:57;24.30;99.90
3542;DHT22;1785;47.388;8.538;2023-06-22T07:59:23;24.40;99.90
3542;DHT22;1785;47.388;8.538;2023-06-22T08:01:49;24.40;99.90
3542;DHT22;1785;47.388;8.538;2023-06-22T08:04:15;24.60;99.90
3542;DHT22;1785;47.388;8.538;2023-06-22T08:06:41;24.50;99.90
3542;DHT22;1785;47.388;8.538;2023-06-22T08:09:07;25.00;99.90
3542;DHT22;1785;47.388;8.538;2023-06-22T08:11:34;25.10;99.90
3542;DHT22;1785;47.388;8.538;2023-06-22T08:14:00;24.70;99.90
3542;DHT22;1785;47.388;8.538;2023-06-22T08:16:26;24.70;99.90
3542;DHT22;1785;47.388;8.538;2023-06-22T08:18:52;24.60;99.90
3542;DHT22;1785;47.388;8.538;2023-06-22T08:21:18;24.70;99.90
3542;DHT22;1785;47.388;8.538;2023-06-22T08:23:44;25.00;99.90
3542;DHT22;1785;47.388;8.538;2023-06-22T08:26:10;25.20;99.90
3542;DHT22;1785;47.388;8.538;2023-06-22T08:28:37;25.50;99.90
3542;DHT22;1785;47.388;8.538;2023-06-22T08:31:03;26.10;99.90
3542;DHT22;1785;47.388;8.538;2023-06-22T08:33:29;26.20;99.90
3542;DHT22;1785;47.388;8.538;2023-06-22T08:35:57;26.20;99.90
3542;DHT22;1785;47.388;8.538;2023-06-22T08:38:23;26.30;99.90
3542;DHT22;1785;47.388;8.538;2023-06-22T08:40:50;26.00;99.90
3542;DHT22;1785;47.388;8.538;2023-06-22T08:43:16;26.10;99.90
3542;DHT22;1785;47.388;8.538;2023-06-22T08:45:42;26.20;99.90
3542;DHT22;1785;47.388;8.538;2023-06-22T08:48:08;26.40;99.90
3542;DHT22;1785;47.388;8.538;2023-06-22T08:50:35;26.40;99.90
3542;DHT22;1785;47.388;8.538;2023-06-22T08:53:01;26.40;99.90
3542;DHT22;1785;47.388;8.538;2023-06-22T08:55:27;26.60;99.90
3542;DHT22;1785;47.388;8.538;2023-06-22T08:57:53;26.90;99.90
3542;DHT22;1785;47.388;8.538;2023-06-22T09:00:20;27.00;99.90
3542;DHT22;1785;47.388;8.538;2023-06-22T09:02:48;27.00;99.90
3542;DHT22;1785;47.388;8.538;2023-06-22T09:05:14;27.10;99.90
3542;DHT22;1785;47.388;8.538;2023-06-22T09:07:41;27.20;99.90
3542;DHT22;1785;47.388;8.538;2023-06-22T09:10:08;27.40;99.90
3542;DHT22;1785;47.388;8.538;2023-06-22T09:12:34;27.40;99.90
3542;DHT22;1785;47.388;8.538;2023-06-22T09:15:00;27.30;99.90
3542;DHT22;1785;47.388;8.538;2023-06-22T09:17:29;27.30;99.90
3542;DHT22;1785;47.388;8.538;2023-06-22T09:19:55;27.50;99.90
3542;DHT22;1785;47.388;8.538;2023-06-22T09:22:21;27.40;99.90
3542;DHT22;1785;47.388;8.538;2023-06-22T09:24:47;27.40;99.90
3542;DHT22;1785;47.388;8.538;2023-06-22T09:27:14;27.40;99.90
3542;DHT22;1785;47.388;8.538;2023-06-22T09:29:40;27.40;99.90
3542;DHT22;1785;47.388;8.538;2023-06-22T09:32:06;27.50;99.90
3542;DHT22;1785;47.388;8.538;2023-06-22T09:34:33;27.60;99.90
3542;DHT22;1785;47.388;8.538;2023-06-22T09:37:00;27.70;99.90
3542;DHT22;1785;47.388;8.538;2023-06-22T09:39:26;27.90;99.90
3542;DHT22;1785;47.388;8.538;2023-06-22T09:41:52;28.00;99.90
3542;DHT22;1785;47.388;8.538;2023-06-22T09:44:18;28.00;99.90
3542;DHT22;1785;47.388;8.538;2023-06-22T09:46:44;28.20;99.90
3542;DHT22;1785;47.388;8.538;2023-06-22T09:49:10;28.30;99.90
3542;DHT22;1785;47.388;8.538;2023-06-22T09:51:37;28.30;99.90
3542;DHT22;1785;47.388;8.538;2023-06-22T09:54:03;28.50;99.90
3542;DHT22;1785;47.388;8.538;2023-06-22T09:56:29;28.60;99.90
3542;DHT22;1785;47.388;8.538;2023-06-22T09:58:57;28.70;99.90
3542;DHT22;1785;47.388;8.538;2023-06-22T10:01:23;28.60;99.90
3542;DHT22;1785;47.388;8.538;2023-06-22T10:03:52;28.60;99.90
3542;DHT22;1785;47.388;8.538;2023-06-22T10:06:19;28.50;99.90
3542;DHT22;1785;47.388;8.538;2023-06-22T10:08:45;28.60;99.90
3542;DHT22;1785;47.388;8.538;2023-06-22T10:11:14;28.50;99.90
3542;DHT22;1785;47.388;8.538;2023-06-22T10:13:40;28.60;99.90
3542;DHT22;1785;47.388;8.538;2023-06-22T10:16:06;28.70;99.90
3542;DHT22;1785;47.388;8.538;2023-06-22T10:18:32;28.80;99.90
3542;DHT22;1785;47.388;8.538;2023-06-22T10:20:58;28.60;99.90
3542;DHT22;1785;47.388;8.538;2023-06-22T10:23:24;28.60;99.90
3542;DHT22;1785;47.388;8.538;2023-06-22T10:25:50;28.50;99.90
3542;DHT22;1785;47.388;8.538;2023-06-22T10:28:17;28.70;99.90
3542;DHT22;1785;47.388;8.538;2023-06-22T10:30:43;28.70;99.90
3542;DHT22;1785;47.388;8.538;2023-06-22T10:33:11;28.70;99.90
3542;DHT22;1785;47.388;8.538;2023-06-22T10:35:37;28.70;99.90
3542;DHT22;1785;47.388;8.538;2023-06-22T10:38:04;28.80;99.90
3542;DHT22;1785;47.388;8.538;2023-06-22T10:40:30;29.00;99.90
3542;DHT22;1785;47.388;8.538;2023-06-22T10:42:56;29.00;99.90
3542;DHT22;1785;47.388;8.538;2023-06-22T10:45:23;29.00;99.90
3542;DHT22;1785;47.388;8.538;2023-06-22T10:47:49;29.10;99.90
3542;DHT22;1785;47.388;8.538;2023-06-22T10:50:15;29.10;99.90
3542;DHT22;1785;47.388;8.538;2023-06-22T10:52:41;29.00;99.90
3542;DHT22;1785;47.388;8.538;2023-06-22T10:55:08;29.10;99.90
3542;DHT22;1785;47.388;8.538;2023-06-22T10:57:34;28.90;99.90
3542;DHT22;1785;47.388;8.538;2023-06-22T11:00:02;28.90;99.90
3542;DHT22;1785;47.388;8.538;2023-06-22T11:02:31;29.10;99.90
3542;DHT22;1785;47.388;8.538;2023-06-22T11:04:57;29.20;99.90
3542;DHT22;1785;47.388;8.538;2023-06-22T11:07:25;29.10;99.90
3542;DHT22;1785;47.388;8.538;2023-06-22T11:09:53;29.20;99.90
3542;DHT22;1785;47.388;8.538;2023-06-22T11:12:19;29.40;99.90
3542;DHT22;1785;47.388;8.538;2023-06-22T11:14:45;29.40;99.90
3542;DHT22;1785;47.388;8.538;2023-06-22T11:17:11;29.30;99.90
3542;DHT22;1785;47.388;8.538;2023-06-22T11:19:38;29.40;99.90
3542;DHT22;1785;47.388;8.538;2023-06-22T11:22:04;29.40;99.90
3542;DHT22;1785;47.388;8.538;2023-06-22T11:24:31;29.20;99.90
3542;DHT22;1785;47.388;8.538;2023-06-22T11:26:57;29.10;99.90
3542;DHT22;1785;47.388;8.538;2023-06-22T11:29:23;29.20;99.90
3542;DHT22;1785;47.388;8.538;2023-06-22T11:31:49;29.30;99.90
3542;DHT22;1785;47.388;8.538;2023-06-22T11:34:15;29.30;99.90
3542;DHT22;1785;47.388;8.538;2023-06-22T11:36:42;29.40;99.90
3542;DHT22;1785;47.388;8.538;2023-06-22T11:39:09;29.40;99.90
3542;DHT22;1785;47.388;8.538;2023-06-22T11:41:36;29.20;99.90
3542;DHT22;1785;47.388;8.538;2023-06-22T11:44:02;29.20;99.90
3542;DHT22;1785;47.388;8.538;2023-06-22T11:46:30;29.20;99.90
3542;DHT22;1785;47.388;8.538;2023-06-22T11:48:57;29.20;99.90
3542;DHT22;1785;47.388;8.538;2023-06-22T11:51:23;29.30;99.90
3542;DHT22;1785;47.388;8.538;2023-06-22T11:53:50;29.40;99.90
3542;DHT22;1785;47.388;8.538;2023-06-22T11:56:16;29.40;99.90
3542;DHT22;1785;47.388;8.538;2023-06-22T11:58:42;29.40;99.90
3542;DHT22;1785;47.388;8.538;2023-06-22T12:01:08;29.40;99.90
3542;DHT22;1785;47.388;8.538;2023-06-22T12:03:34;29.40;99.90
3542;DHT22;1785;47.388;8.538;2023-06-22T12:06:00;29.40;99.90
3542;DHT22;1785;47.388;8.538;2023-06-22T12:08:26;29.60;99.90
3542;DHT22;1785;47.388;8.538;2023-06-22T12:10:53;29.60;99.90
3542;DHT22;1785;47.388;8.538;2023-06-22T12:13:19;29.60;99.90
3542;DHT22;1785;47.388;8.538;2023-06-22T12:15:45;29.40;99.90
3542;DHT22;1785;47.388;8.538;2023-06-22T12:18:11;29.30;99.90
3542;DHT22;1785;47.388;8.538;2023-06-22T12:20:40;29.30;99.90
3542;DHT22;1785;47.388;8.538;2023-06-22T12:23:06;29.40;99.90
3542;DHT22;1785;47.388;8.538;2023-06-22T12:25:32;29.50;99.90
3542;DHT22;1785;47.388;8.538;2023-06-22T12:27:58;29.40;99.90
3542;DHT22;1785;47.388;8.538;2023-06-22T12:30:24;29.20;99.90
3542;DHT22;1785;47.388;8.538;2023-06-22T12:32:50;29.40;99.90
3542;DHT22;1785;47.388;8.538;2023-06-22T12:35:16;29.80;99.90
3542;DHT22;1785;47.388;8.538;2023-06-22T12:37:43;29.80;99.90
3542;DHT22;1785;47.388;8.538;2023-06-22T12:40:10;29.40;99.90
3542;DHT22;1785;47.388;8.538;2023-06-22T12:42:36;29.40;99.90
3542;DHT22;1785;47.388;8.538;2023-06-22T12:45:04;29.60;99.90
3542;DHT22;1785;47.388;8.538;2023-06-22T12:47:31;29.70;99.90
3542;DHT22;1785;47.388;8.538;2023-06-22T12:49:57;29.60;99.90
3542;DHT22;1785;47.388;8.538;2023-06-22T12:52:23;29.40;99.90
3542;DHT22;1785;47.388;8.538;2023-06-22T12:54:49;29.60;99.90
3542;DHT22;1785;47.388;8.538;2023-06-22T12:57:15;29.60;99.90
3542;DHT22;1785;47.388;8.538;2023-06-22T12:59:43;29.60;99.90
3542;DHT22;1785;47.388;8.538;2023-06-22T13:02:09;29.60;99.90
3542;DHT22;1785;47.388;8.538;2023-06-22T13:04:35;29.50;99.90
3542;DHT22;1785;47.388;8.538;2023-06-22T13:07:01;29.60;99.90
3542;DHT22;1785;47.388;8.538;2023-06-22T13:09:28;29.80;99.90
3542;DHT22;1785;47.388;8.538;2023-06-22T13:11:54;29.80;99.90
3542;DHT22;1785;47.388;8.538;2023-06-22T13:14:20;30.00;99.90
3542;DHT22;1785;47.388;8.538;2023-06-22T13:16:46;30.10;99.90
3542;DHT22;1785;47.388;8.538;2023-06-22T13:19:13;29.90;99.90
3542;DHT22;1785;47.388;8.538;2023-06-22T13:21:39;29.80;99.90
3542;DHT22;1785;47.388;8.538;2023-06-22T13:24:06;29.60;99.90
3542;DHT22;1785;47.388;8.538;2023-06-22T13:26:32;29.30;99.90
3542;DHT22;1785;47.388;8.538;2023-06-22T13:28:59;29.30;99.90
3542;DHT22;1785;47.388;8.538;2023-06-22T13:31:25;29.40;99.90
3542;DHT22;1785;47.388;8.538;2023-06-22T13:33:51;29.40;99.90
3542;DHT22;1785;47.388;8.538;2023-06-22T13:36:18;29.70;99.90
3542;DHT22;1785;47.388;8.538;2023-06-22T13:38:45;29.90;99.90
3542;DHT22;1785;47.388;8.538;2023-06-22T13:41:11;30.10;99.90
3542;DHT22;1785;47.388;8.538;2023-06-22T13:43:37;29.90;99.90
3542;DHT22;1785;47.388;8.538;2023-06-22T13:46:03;29.60;99.90
3542;DHT22;1785;47.388;8.538;2023-06-22T13:48:29;29.70;99.90
3542;DHT22;1785;47.388;8.538;2023-06-22T13:50:55;29.40;99.90
3542;DHT22;1785;47.388;8.538;2023-06-22T13:53:24;29.30;99.90
3542;DHT22;1785;47.388;8.538;2023-06-22T13:55:50;29.10;99.90
3542;DHT22;1785;47.388;8.538;2023-06-22T13:58:17;28.80;99.90
3542;DHT22;1785;47.388;8.538;2023-06-22T14:00:45;28.70;99.90
3542;DHT22;1785;47.388;8.538;2023-06-22T14:03:11;28.60;99.90
3542;DHT22;1785;47.388;8.538;2023-06-22T14:05:37;28.50;99.90
3542;DHT22;1785;47.388;8.538;2023-06-22T14:08:03;28.80;99.90
3542;DHT22;1785;47.388;8.538;2023-06-22T14:10:29;28.60;99.90
3542;DHT22;1785;47.388;8.538;2023-06-22T14:12:55;28.30;99.90
3542;DHT22;1785;47.388;8.538;2023-06-22T14:15:22;28.20;99.90
3542;DHT22;1785;47.388;8.538;2023-06-22T14:17:48;28.40;99.90
3542;DHT22;1785;47.388;8.538;2023-06-22T14:20:14;28.60;99.90
3542;DHT22;1785;47.388;8.538;2023-06-22T14:22:40;28.60;99.90
3542;DHT22;1785;47.388;8.538;2023-06-22T14:25:07;28.60;99.90
3542;DHT22;1785;47.388;8.538;2023-06-22T14:27:33;27.90;99.90
3542;DHT22;1785;47.388;8.538;2023-06-22T14:29:59;27.30;99.90
3542;DHT22;1785;47.388;8.538;2023-06-22T14:32:28;27.10;99.90
3542;DHT22;1785;47.388;8.538;2023-06-22T14:34:55;27.20;99.90
3542;DHT22;1785;47.388;8.538;2023-06-22T14:37:21;27.10;99.90
3542;DHT22;1785;47.388;8.538;2023-06-22T14:39:47;26.70;99.90
3542;DHT22;1785;47.388;8.538;2023-06-22T14:42:13;26.70;99.90
3542;DHT22;1785;47.388;8.538;2023-06-22T14:44:40;27.20;99.90
3542;DHT22;1785;47.388;8.538;2023-06-22T14:47:07;27.50;99.90
3542;DHT22;1785;47.388;8.538;2023-06-22T14:49:33;27.60;99.90
3542;DHT22;1785;47.388;8.538;2023-06-22T14:52:01;27.70;99.90
3542;DHT22;1785;47.388;8.538;2023-06-22T14:54:27;27.60;99.90
3542;DHT22;1785;47.388;8.538;2023-06-22T14:56:53;27.70;99.90
3542;DHT22;1785;47.388;8.538;2023-06-22T14:59:19;27.90;99.90
3542;DHT22;1785;47.388;8.538;2023-06-22T15:01:46;28.00;99.90
3542;DHT22;1785;47.388;8.538;2023-06-22T15:04:12;28.10;99.90
3542;DHT22;1785;47.388;8.538;2023-06-22T15:06:38;28.20;99.90
3542;DHT22;1785;47.388;8.538;2023-06-22T15:09:04;28.20;99.90
3542;DHT22;1785;47.388;8.538;2023-06-22T15:11:30;28.40;99.90
3542;DHT22;1785;47.388;8.538;2023-06-22T15:13:58;28.40;99.90
3542;DHT22;1785;47.388;8.538;2023-06-22T15:16:25;28.50;99.90
3542;DHT22;1785;47.388;8.538;2023-06-22T15:18:51;28.60;99.90
3542;DHT22;1785;47.388;8.538;2023-06-22T15:21:17;28.80;99.90
3542;DHT22;1785;47.388;8.538;2023-06-22T15:23:43;28.60;99.90
3542;DHT22;1785;47.388;8.538;2023-06-22T15:26:09;28.50;99.90
3542;DHT22;1785;47.388;8.538;2023-06-22T15:28:39;28.60;99.90
3542;DHT22;1785;47.388;8.538;2023-06-22T15:31:06;28.50;99.90
3542;DHT22;1785;47.388;8.538;2023-06-22T15:33:32;28.30;99.90
3542;DHT22;1785;47.388;8.538;2023-06-22T15:35:58;28.20;99.90
3542;DHT22;1785;47.388;8.538;2023-06-22T15:38:29;28.00;99.90
3542;DHT22;1785;47.388;8.538;2023-06-22T15:40:55;27.80;99.90
3542;DHT22;1785;47.388;8.538;2023-06-22T15:43:21;27.70;99.90
3542;DHT22;1785;47.388;8.538;2023-06-22T15:45:47;27.50;99.90
3542;DHT22;1785;47.388;8.538;2023-06-22T15:48:14;27.50;99.90
3542;DHT22;1785;47.388;8.538;2023-06-22T15:50:41;27.50;99.90
3542;DHT22;1785;47.388;8.538;2023-06-22T15:53:07;27.50;99.90
3542;DHT22;1785;47.388;8.538;2023-06-22T15:55:33;27.50;99.90
3542;DHT22;1785;47.388;8.538;2023-06-22T15:58:00;27.40;99.90
3542;DHT22;1785;47.388;8.538;2023-06-22T16:00:27;27.30;99.90
3542;DHT22;1785;47.388;8.538;2023-06-22T16:02:53;27.20;99.90
3542;DHT22;1785;47.388;8.538;2023-06-22T16:05:20;27.40;99.90
3542;DHT22;1785;47.388;8.538;2023-06-22T16:07:46;27.30;99.90